sensor_id;sensor_type;location;lat;lon;timestamp;P1;durP1;ratioP1;P2;durP2;ratioP2
57313;SDS011;53202;50.976;18.216;2023-02-21T00:01:47;0.90;;;0.90;;
57313;SDS011;53202;50.976;18.216;2023-02-21T00:12:28;3.70;;;2.60;;
57313;SDS011;53202;50.976;18.216;2023-02-21T00:23:09;7.50;;;3.20;;
57313;SDS011;53202;50.976;18.216;2023-02-21T00:33:49;3.40;;;2.50;;
57313;SDS011;53202;50.976;18.216;2023-02-21T00:44:30;4.90;;;4.40;;
57313;SDS011;53202;50.976;18.216;2023-02-21T00:55:10;4.20;;;2.40;;
57313;SDS011;53202;50.976;18.216;2023-02-21T01:05:51;3.40;;;3.00;;
57313;SDS011;53202;50.976;18.216;2023-02-21T01:16:32;4.30;;;4.00;;
57313;SDS011;53202;50.976;18.216;2023-02-21T01:21:52;8.50;;;4.70;;
57313;SDS011;53202;50.976;18.216;2023-02-21T01:32:33;4.70;;;3.20;;
57313;SDS011;53202;50.976;18.216;2023-02-21T01:43:19;5.40;;;4.90;;
57313;SDS011;53202;50.976;18.216;2023-02-21T01:54:04;4.50;;;4.10;;
57313;SDS011;53202;50.976;18.216;2023-02-21T02:04:55;5.30;;;4.80;;
57313;SDS011;53202;50.976;18.216;2023-02-21T02:15:39;3.60;;;3.20;;
57313;SDS011;53202;50.976;18.216;2023-02-21T02:36:49;14.20;;;6.40;;
57313;SDS011;53202;50.976;18.216;2023-02-21T02:46:56;8.70;;;7.10;;
57313;SDS011;53202;50.976;18.216;2023-02-21T02:56:44;4.70;;;4.30;;
57313;SDS011;53202;50.976;18.216;2023-02-21T02:59:20;11.90;;;9.10;;
57313;SDS011;53202;50.976;18.216;2023-02-21T03:10:16;3.00;;;2.80;;
57313;SDS011;53202;50.976;18.216;2023-02-21T03:20:26;7.60;;;6.50;;
57313;SDS011;53202;50.976;18.216;2023-02-21T03:30:10;11.50;;;7.80;;
57313;SDS011;53202;50.976;18.216;2023-02-21T03:39:58;37.60;;;12.50;;
57313;SDS011;53202;50.976;18.216;2023-02-21T03:49:42;23.00;;;12.30;;
57313;SDS011;53202;50.976;18.216;2023-02-21T03:59:29;24.60;;;9.70;;
57313;SDS011;53202;50.976;18.216;2023-02-21T04:09:12;8.80;;;3.90;;
57313;SDS011;53202;50.976;18.216;2023-02-21T04:18:59;12.10;;;5.90;;
57313;SDS011;53202;50.976;18.216;2023-02-21T04:28:43;2.80;;;2.60;;
57313;SDS011;53202;50.976;18.216;2023-02-21T04:38:27;6.40;;;5.10;;
57313;SDS011;53202;50.976;18.216;2023-02-21T04:48:11;3.70;;;3.40;;
57313;SDS011;53202;50.976;18.216;2023-02-21T04:57:56;5.20;;;4.70;;
57313;SDS011;53202;50.976;18.216;2023-02-21T05:07:40;6.70;;;5.50;;
57313;SDS011;53202;50.976;18.216;2023-02-21T05:17:25;25.00;;;9.90;;
57313;SDS011;53202;50.976;18.216;2023-02-21T05:27:14;6.20;;;5.60;;
57313;SDS011;53202;50.976;18.216;2023-02-21T05:36:59;7.50;;;4.90;;
57313;SDS011;53202;50.976;18.216;2023-02-21T05:46:42;11.40;;;7.90;;
57313;SDS011;53202;50.976;18.216;2023-02-21T05:56:35;13.20;;;6.50;;
57313;SDS011;53202;50.976;18.216;2023-02-21T06:06:19;11.20;;;7.40;;
57313;SDS011;53202;50.976;18.216;2023-02-21T06:16:04;10.70;;;9.60;;
57313;SDS011;53202;50.976;18.216;2023-02-21T06:18:30;14.00;;;10.00;;
57313;SDS011;53202;50.976;18.216;2023-02-21T06:28:13;8.10;;;7.30;;
57313;SDS011;53202;50.976;18.216;2023-02-21T06:37:57;7.30;;;6.60;;
57313;SDS011;53202;50.976;18.216;2023-02-21T06:47:41;12.50;;;9.00;;
57313;SDS011;53202;50.976;18.216;2023-02-21T06:57:24;10.10;;;9.00;;
57313;SDS011;53202;50.976;18.216;2023-02-21T07:07:09;11.30;;;10.10;;
57313;SDS011;53202;50.976;18.216;2023-02-21T07:16:54;11.50;;;8.30;;
57313;SDS011;53202;50.976;18.216;2023-02-21T07:26:38;9.80;;;8.90;;
57313;SDS011;53202;50.976;18.216;2023-02-21T07:36:22;8.30;;;7.50;;
57313;SDS011;53202;50.976;18.216;2023-02-21T07:46:09;16.40;;;14.70;;
57313;SDS011;53202;50.976;18.216;2023-02-21T08:03:12;9.60;;;6.60;;
57313;SDS011;53202;50.976;18.216;2023-02-21T08:05:38;16.40;;;7.00;;
57313;SDS011;53202;50.976;18.216;2023-02-21T08:15:24;7.90;;;5.30;;
57313;SDS011;53202;50.976;18.216;2023-02-21T08:25:10;6.40;;;5.50;;
57313;SDS011;53202;50.976;18.216;2023-02-21T08:34:58;8.20;;;3.70;;
57313;SDS011;53202;50.976;18.216;2023-02-21T08:44:48;6.40;;;2.50;;
57313;SDS011;53202;50.976;18.216;2023-02-21T08:54:38;12.30;;;4.70;;
57313;SDS011;53202;50.976;18.216;2023-02-21T09:04:24;4.60;;;3.00;;
57313;SDS011;53202;50.976;18.216;2023-02-21T09:14:13;3.80;;;2.50;;
57313;SDS011;53202;50.976;18.216;2023-02-21T09:23:59;4.70;;;4.30;;
57313;SDS011;53202;50.976;18.216;2023-02-21T09:33:50;5.80;;;3.90;;
57313;SDS011;53202;50.976;18.216;2023-02-21T09:43:40;3.10;;;2.40;;
57313;SDS011;53202;50.976;18.216;2023-02-21T09:53:34;10.20;;;7.50;;
57313;SDS011;53202;50.976;18.216;2023-02-21T10:14:26;7.00;;;5.50;;
57313;SDS011;53202;50.976;18.216;2023-02-21T10:24:24;4.70;;;2.80;;
57313;SDS011;53202;50.976;18.216;2023-02-21T10:41:44;8.10;;;4.80;;
57313;SDS011;53202;50.976;18.216;2023-02-21T10:44:13;5.10;;;2.80;;
57313;SDS011;53202;50.976;18.216;2023-02-21T10:54:19;5.40;;;4.30;;
57313;SDS011;53202;50.976;18.216;2023-02-21T11:04:23;2.90;;;1.50;;
57313;SDS011;53202;50.976;18.216;2023-02-21T11:14:30;2.20;;;2.00;;
57313;SDS011;53202;50.976;18.216;2023-02-21T11:24:44;4.10;;;2.70;;
57313;SDS011;53202;50.976;18.216;2023-02-21T11:34:44;3.40;;;1.90;;
57313;SDS011;53202;50.976;18.216;2023-02-21T11:44:46;0.10;;;0.10;;
57313;SDS011;53202;50.976;18.216;2023-02-21T11:54:46;0.70;;;0.50;;
57313;SDS011;53202;50.976;18.216;2023-02-21T12:05:16;3.30;;;1.60;;
57313;SDS011;53202;50.976;18.216;2023-02-21T12:15:50;1.20;;;1.10;;
57313;SDS011;53202;50.976;18.216;2023-02-21T12:26:10;1.50;;;1.40;;
57313;SDS011;53202;50.976;18.216;2023-02-21T12:36:54;2.60;;;1.10;;
57313;SDS011;53202;50.976;18.216;2023-02-21T12:47:03;3.60;;;1.40;;
57313;SDS011;53202;50.976;18.216;2023-02-21T12:57:24;0.40;;;0.40;;
57313;SDS011;53202;50.976;18.216;2023-02-21T13:07:32;4.10;;;1.10;;
57313;SDS011;53202;50.976;18.216;2023-02-21T13:10:04;6.10;;;2.00;;
57313;SDS011;53202;50.976;18.216;2023-02-21T13:20:13;3.10;;;2.20;;
57313;SDS011;53202;50.976;18.216;2023-02-21T13:30:33;2.60;;;0.50;;
57313;SDS011;53202;50.976;18.216;2023-02-21T13:40:34;2.80;;;1.60;;
57313;SDS011;53202;50.976;18.216;2023-02-21T13:50:40;26.90;;;0.80;;
57313;SDS011;53202;50.976;18.216;2023-02-21T14:11:21;8.90;;;7.60;;
57313;SDS011;53202;50.976;18.216;2023-02-21T14:21:30;5.90;;;1.30;;
57313;SDS011;53202;50.976;18.216;2023-02-21T14:52:08;15.60;;;5.90;;
57313;SDS011;53202;50.976;18.216;2023-02-21T15:02:50;10.20;;;4.70;;
57313;SDS011;53202;50.976;18.216;2023-02-21T15:12:54;14.60;;;3.50;;
57313;SDS011;53202;50.976;18.216;2023-02-21T15:22:54;3.20;;;0.90;;
57313;SDS011;53202;50.976;18.216;2023-02-21T15:42:51;21.10;;;4.40;;
57313;SDS011;53202;50.976;18.216;2023-02-21T15:52:45;10.70;;;3.00;;
57313;SDS011;53202;50.976;18.216;2023-02-21T16:14:04;15.70;;;4.60;;
57313;SDS011;53202;50.976;18.216;2023-02-21T16:23:51;12.90;;;5.20;;
57313;SDS011;53202;50.976;18.216;2023-02-21T16:33:41;26.80;;;7.80;;
57313;SDS011;53202;50.976;18.216;2023-02-21T16:43:36;21.30;;;6.90;;
57313;SDS011;53202;50.976;18.216;2023-02-21T16:53:23;13.10;;;6.00;;
57313;SDS011;53202;50.976;18.216;2023-02-21T17:03:11;19.50;;;6.20;;
57313;SDS011;53202;50.976;18.216;2023-02-21T17:12:57;27.70;;;7.50;;
57313;SDS011;53202;50.976;18.216;2023-02-21T17:22:42;13.90;;;6.50;;
57313;SDS011;53202;50.976;18.216;2023-02-21T17:32:27;17.50;;;5.80;;
57313;SDS011;53202;50.976;18.216;2023-02-21T17:42:16;22.70;;;8.10;;
57313;SDS011;53202;50.976;18.216;2023-02-21T17:51:59;54.60;;;8.60;;
57313;SDS011;53202;50.976;18.216;2023-02-21T18:01:44;23.80;;;6.80;;
57313;SDS011;53202;50.976;18.216;2023-02-21T18:04:11;45.40;;;12.40;;
57313;SDS011;53202;50.976;18.216;2023-02-21T18:13:57;38.40;;;16.30;;
57313;SDS011;53202;50.976;18.216;2023-02-21T18:23:42;34.90;;;15.60;;
57313;SDS011;53202;50.976;18.216;2023-02-21T18:33:27;23.70;;;15.30;;
57313;SDS011;53202;50.976;18.216;2023-02-21T18:35:54;65.70;;;23.60;;
57313;SDS011;53202;50.976;18.216;2023-02-21T18:45:45;47.50;;;15.50;;
57313;SDS011;53202;50.976;18.216;2023-02-21T18:55:30;14.10;;;11.40;;
57313;SDS011;53202;50.976;18.216;2023-02-21T19:05:16;30.20;;;10.20;;
57313;SDS011;53202;50.976;18.216;2023-02-21T19:15:05;54.40;;;20.20;;
57313;SDS011;53202;50.976;18.216;2023-02-21T19:24:49;88.40;;;17.00;;
57313;SDS011;53202;50.976;18.216;2023-02-21T19:34:34;64.30;;;25.70;;
57313;SDS011;53202;50.976;18.216;2023-02-21T19:44:17;68.50;;;20.20;;
57313;SDS011;53202;50.976;18.216;2023-02-21T19:54:11;73.10;;;10.70;;
57313;SDS011;53202;50.976;18.216;2023-02-21T20:03:57;17.70;;;11.20;;
57313;SDS011;53202;50.976;18.216;2023-02-21T20:13:44;40.00;;;13.00;;
57313;SDS011;53202;50.976;18.216;2023-02-21T20:23:32;29.10;;;10.90;;
57313;SDS011;53202;50.976;18.216;2023-02-21T20:33:15;44.00;;;13.30;;
57313;SDS011;53202;50.976;18.216;2023-02-21T20:43:03;18.20;;;9.50;;
57313;SDS011;53202;50.976;18.216;2023-02-21T20:52:48;5.10;;;3.40;;
57313;SDS011;53202;50.976;18.216;2023-02-21T21:02:34;30.90;;;10.40;;
57313;SDS011;53202;50.976;18.216;2023-02-21T21:12:20;45.40;;;16.40;;
57313;SDS011;53202;50.976;18.216;2023-02-21T21:22:13;38.40;;;12.30;;
57313;SDS011;53202;50.976;18.216;2023-02-21T21:32:03;72.10;;;12.30;;
57313;SDS011;53202;50.976;18.216;2023-02-21T21:41:50;26.10;;;13.70;;
57313;SDS011;53202;50.976;18.216;2023-02-21T21:51:40;75.70;;;16.80;;
57313;SDS011;53202;50.976;18.216;2023-02-21T22:01:27;87.80;;;25.20;;
57313;SDS011;53202;50.976;18.216;2023-02-21T22:11:11;122.50;;;40.10;;
57313;SDS011;53202;50.976;18.216;2023-02-21T22:20:55;108.20;;;28.10;;
57313;SDS011;53202;50.976;18.216;2023-02-21T22:23:22;95.80;;;30.80;;
57313;SDS011;53202;50.976;18.216;2023-02-21T22:33:12;55.90;;;22.20;;
57313;SDS011;53202;50.976;18.216;2023-02-21T22:43:06;133.80;;;52.80;;
57313;SDS011;53202;50.976;18.216;2023-02-21T22:52:58;77.70;;;30.70;;
57313;SDS011;53202;50.976;18.216;2023-02-21T23:02:46;84.60;;;26.70;;
57313;SDS011;53202;50.976;18.216;2023-02-21T23:12:41;81.90;;;33.20;;
57313;SDS011;53202;50.976;18.216;2023-02-21T23:22:41;118.50;;;32.50;;
57313;SDS011;53202;50.976;18.216;2023-02-21T23:32:37;107.40;;;44.40;;
57313;SDS011;53202;50.976;18.216;2023-02-21T23:42:21;17.50;;;13.40;;
57313;SDS011;53202;50.976;18.216;2023-02-21T23:52:08;132.30;;;19.50;;
